sensor_id;sensor_type;location;lat;lon;timestamp;temperature;humidity
54576;DHT22;40472;53.486;14.542;2022-08-19T00:00:18;19.50;99.90
54576;DHT22;40472;53.486;14.542;2022-08-19T00:02:44;19.40;99.90
54576;DHT22;40472;53.486;14.542;2022-08-19T00:05:12;19.50;99.90
54576;DHT22;40472;53.486;14.542;2022-08-19T00:07:38;19.60;99.90
54576;DHT22;40472;53.486;14.542;2022-08-19T00:10:06;19.60;99.90
54576;DHT22;40472;53.486;14.542;2022-08-19T00:12:32;19.70;99.90
54576;DHT22;40472;53.486;14.542;2022-08-19T00:15:04;19.70;99.90
54576;DHT22;40472;53.486;14.542;2022-08-19T00:17:37;19.60;99.90
54576;DHT22;40472;53.486;14.542;2022-08-19T00:20:04;19.50;99.90
54576;DHT22;40472;53.486;14.542;2022-08-19T00:22:34;19.50;99.90
54576;DHT22;40472;53.486;14.542;2022-08-19T00:25:05;19.50;99.90
54576;DHT22;40472;53.486;14.542;2022-08-19T00:27:32;19.60;99.90
54576;DHT22;40472;53.486;14.542;2022-08-19T00:29:58;19.60;99.90
54576;DHT22;40472;53.486;14.542;2022-08-19T00:32:27;19.70;99.90
54576;DHT22;40472;53.486;14.542;2022-08-19T00:34:53;19.70;99.90
54576;DHT22;40472;53.486;14.542;2022-08-19T00:37:21;19.70;99.90
54576;DHT22;40472;53.486;14.542;2022-08-19T00:39:48;19.60;99.90
54576;DHT22;40472;53.486;14.542;2022-08-19T00:42:14;19.70;99.90
54576;DHT22;40472;53.486;14.542;2022-08-19T00:44:41;19.70;99.90
54576;DHT22;40472;53.486;14.542;2022-08-19T00:47:07;19.70;99.90
54576;DHT22;40472;53.486;14.542;2022-08-19T00:49:39;19.70;99.90
54576;DHT22;40472;53.486;14.542;2022-08-19T00:52:15;19.70;99.90
54576;DHT22;40472;53.486;14.542;2022-08-19T00:54:42;19.70;99.90
54576;DHT22;40472;53.486;14.542;2022-08-19T00:57:13;19.70;99.90
54576;DHT22;40472;53.486;14.542;2022-08-19T00:59:42;19.70;99.90
54576;DHT22;40472;53.486;14.542;2022-08-19T01:02:09;19.70;99.90
54576;DHT22;40472;53.486;14.542;2022-08-19T01:04:35;19.80;99.90
54576;DHT22;40472;53.486;14.542;2022-08-19T01:07:01;19.80;99.90
54576;DHT22;40472;53.486;14.542;2022-08-19T01:09:28;19.90;99.90
54576;DHT22;40472;53.486;14.542;2022-08-19T01:11:54;19.90;99.90
54576;DHT22;40472;53.486;14.542;2022-08-19T01:14:20;19.90;99.90
54576;DHT22;40472;53.486;14.542;2022-08-19T01:16:46;20.00;99.90
54576;DHT22;40472;53.486;14.542;2022-08-19T01:19:32;20.10;99.90
54576;DHT22;40472;53.486;14.542;2022-08-19T01:24:45;20.40;99.90
54576;DHT22;40472;53.486;14.542;2022-08-19T01:27:11;20.50;99.90
54576;DHT22;40472;53.486;14.542;2022-08-19T01:29:39;20.40;99.90
54576;DHT22;40472;53.486;14.542;2022-08-19T01:32:06;20.50;99.90
54576;DHT22;40472;53.486;14.542;2022-08-19T01:34:32;20.50;99.90
54576;DHT22;40472;53.486;14.542;2022-08-19T01:37:00;20.50;99.90
54576;DHT22;40472;53.486;14.542;2022-08-19T01:39:30;20.50;99.90
54576;DHT22;40472;53.486;14.542;2022-08-19T01:41:56;20.50;99.90
54576;DHT22;40472;53.486;14.542;2022-08-19T01:44:22;20.60;99.90
54576;DHT22;40472;53.486;14.542;2022-08-19T01:46:50;20.60;99.90
54576;DHT22;40472;53.486;14.542;2022-08-19T01:49:21;20.50;99.90
54576;DHT22;40472;53.486;14.542;2022-08-19T01:51:48;20.50;99.90
54576;DHT22;40472;53.486;14.542;2022-08-19T01:54:17;20.50;99.90
54576;DHT22;40472;53.486;14.542;2022-08-19T01:56:43;20.50;99.90
54576;DHT22;40472;53.486;14.542;2022-08-19T01:59:13;20.50;99.90
54576;DHT22;40472;53.486;14.542;2022-08-19T02:01:39;20.50;99.90
54576;DHT22;40472;53.486;14.542;2022-08-19T02:04:05;20.50;99.90
54576;DHT22;40472;53.486;14.542;2022-08-19T02:06:31;20.40;99.90
54576;DHT22;40472;53.486;14.542;2022-08-19T02:08:58;20.30;99.90
54576;DHT22;40472;53.486;14.542;2022-08-19T02:11:27;20.30;99.90
54576;DHT22;40472;53.486;14.542;2022-08-19T02:13:55;20.30;99.90
54576;DHT22;40472;53.486;14.542;2022-08-19T02:16:21;20.20;99.90
54576;DHT22;40472;53.486;14.542;2022-08-19T02:18:48;20.10;99.90
54576;DHT22;40472;53.486;14.542;2022-08-19T02:21:19;20.00;99.90
54576;DHT22;40472;53.486;14.542;2022-08-19T02:23:45;19.90;99.90
54576;DHT22;40472;53.486;14.542;2022-08-19T02:26:11;19.80;99.90
54576;DHT22;40472;53.486;14.542;2022-08-19T02:28:38;19.90;99.90
54576;DHT22;40472;53.486;14.542;2022-08-19T02:31:12;19.80;99.90
54576;DHT22;40472;53.486;14.542;2022-08-19T02:33:38;19.80;99.90
54576;DHT22;40472;53.486;14.542;2022-08-19T02:36:06;19.70;99.90
54576;DHT22;40472;53.486;14.542;2022-08-19T02:38:32;19.70;99.90
54576;DHT22;40472;53.486;14.542;2022-08-19T02:41:04;19.70;99.90
54576;DHT22;40472;53.486;14.542;2022-08-19T02:43:33;19.60;99.90
54576;DHT22;40472;53.486;14.542;2022-08-19T02:46:10;19.60;99.90
54576;DHT22;40472;53.486;14.542;2022-08-19T02:48:37;19.60;99.90
54576;DHT22;40472;53.486;14.542;2022-08-19T02:51:03;19.60;99.90
54576;DHT22;40472;53.486;14.542;2022-08-19T02:53:30;19.60;99.90
54576;DHT22;40472;53.486;14.542;2022-08-19T02:55:56;19.50;99.90
54576;DHT22;40472;53.486;14.542;2022-08-19T02:58:23;19.50;99.90
54576;DHT22;40472;53.486;14.542;2022-08-19T03:00:52;19.50;99.90
54576;DHT22;40472;53.486;14.542;2022-08-19T03:03:19;19.50;99.90
54576;DHT22;40472;53.486;14.542;2022-08-19T03:05:45;19.40;99.90
54576;DHT22;40472;53.486;14.542;2022-08-19T03:08:12;19.40;99.90
54576;DHT22;40472;53.486;14.542;2022-08-19T03:10:45;19.40;99.90
54576;DHT22;40472;53.486;14.542;2022-08-19T03:13:14;19.30;99.90
54576;DHT22;40472;53.486;14.542;2022-08-19T03:15:42;19.20;99.90
54576;DHT22;40472;53.486;14.542;2022-08-19T03:18:08;19.20;99.90
54576;DHT22;40472;53.486;14.542;2022-08-19T03:20:43;19.20;99.90
54576;DHT22;40472;53.486;14.542;2022-08-19T03:23:09;19.20;99.90
54576;DHT22;40472;53.486;14.542;2022-08-19T03:25:39;19.20;99.90
54576;DHT22;40472;53.486;14.542;2022-08-19T03:28:07;19.20;99.90
54576;DHT22;40472;53.486;14.542;2022-08-19T03:30:33;19.10;99.90
54576;DHT22;40472;53.486;14.542;2022-08-19T03:32:59;19.20;99.90
54576;DHT22;40472;53.486;14.542;2022-08-19T03:35:25;19.20;99.90
54576;DHT22;40472;53.486;14.542;2022-08-19T03:37:50;19.20;99.90
54576;DHT22;40472;53.486;14.542;2022-08-19T03:40:16;19.20;99.90
54576;DHT22;40472;53.486;14.542;2022-08-19T03:42:44;19.10;99.90
54576;DHT22;40472;53.486;14.542;2022-08-19T03:45:11;19.10;99.90
54576;DHT22;40472;53.486;14.542;2022-08-19T03:47:38;19.00;99.90
54576;DHT22;40472;53.486;14.542;2022-08-19T03:50:04;19.10;99.90
54576;DHT22;40472;53.486;14.542;2022-08-19T03:52:30;19.10;99.90
54576;DHT22;40472;53.486;14.542;2022-08-19T03:54:56;19.10;99.90
54576;DHT22;40472;53.486;14.542;2022-08-19T03:57:22;19.20;99.90
54576;DHT22;40472;53.486;14.542;2022-08-19T03:59:47;19.20;99.90
54576;DHT22;40472;53.486;14.542;2022-08-19T04:02:13;19.20;99.90
54576;DHT22;40472;53.486;14.542;2022-08-19T04:04:40;19.30;99.90
54576;DHT22;40472;53.486;14.542;2022-08-19T04:07:07;19.30;99.90
54576;DHT22;40472;53.486;14.542;2022-08-19T04:09:34;19.30;99.90
54576;DHT22;40472;53.486;14.542;2022-08-19T04:12:02;19.30;99.90
54576;DHT22;40472;53.486;14.542;2022-08-19T04:14:30;19.30;99.90
54576;DHT22;40472;53.486;14.542;2022-08-19T04:16:57;19.30;99.90
54576;DHT22;40472;53.486;14.542;2022-08-19T04:19:23;19.30;99.90
54576;DHT22;40472;53.486;14.542;2022-08-19T04:21:52;19.30;99.90
54576;DHT22;40472;53.486;14.542;2022-08-19T04:24:19;19.30;99.90
54576;DHT22;40472;53.486;14.542;2022-08-19T04:26:46;19.40;99.90
54576;DHT22;40472;53.486;14.542;2022-08-19T04:29:18;19.40;99.90
54576;DHT22;40472;53.486;14.542;2022-08-19T04:31:45;19.50;99.90
54576;DHT22;40472;53.486;14.542;2022-08-19T04:34:14;19.50;99.90
54576;DHT22;40472;53.486;14.542;2022-08-19T04:36:41;19.40;99.90
54576;DHT22;40472;53.486;14.542;2022-08-19T04:39:13;19.20;99.90
54576;DHT22;40472;53.486;14.542;2022-08-19T04:41:39;19.30;99.90
54576;DHT22;40472;53.486;14.542;2022-08-19T04:44:24;19.30;99.90
54576;DHT22;40472;53.486;14.542;2022-08-19T04:46:51;19.30;99.90
54576;DHT22;40472;53.486;14.542;2022-08-19T04:49:22;19.20;99.90
54576;DHT22;40472;53.486;14.542;2022-08-19T04:51:48;19.20;99.90
54576;DHT22;40472;53.486;14.542;2022-08-19T04:54:16;19.20;99.90
54576;DHT22;40472;53.486;14.542;2022-08-19T04:56:42;19.20;99.90
54576;DHT22;40472;53.486;14.542;2022-08-19T04:59:09;19.10;99.90
54576;DHT22;40472;53.486;14.542;2022-08-19T05:01:36;19.20;99.90
54576;DHT22;40472;53.486;14.542;2022-08-19T05:04:05;19.10;99.90
54576;DHT22;40472;53.486;14.542;2022-08-19T05:06:32;19.20;99.90
54576;DHT22;40472;53.486;14.542;2022-08-19T05:09:02;19.20;99.90
54576;DHT22;40472;53.486;14.542;2022-08-19T05:11:31;19.20;99.90
54576;DHT22;40472;53.486;14.542;2022-08-19T05:13:57;19.20;99.90
54576;DHT22;40472;53.486;14.542;2022-08-19T05:16:24;19.30;99.90
54576;DHT22;40472;53.486;14.542;2022-08-19T05:18:51;19.40;99.90
54576;DHT22;40472;53.486;14.542;2022-08-19T05:21:36;19.50;99.90
54576;DHT22;40472;53.486;14.542;2022-08-19T05:24:21;19.50;99.90
54576;DHT22;40472;53.486;14.542;2022-08-19T05:26:50;19.50;99.90
54576;DHT22;40472;53.486;14.542;2022-08-19T05:29:18;19.60;99.90
54576;DHT22;40472;53.486;14.542;2022-08-19T05:31:45;19.70;99.90
54576;DHT22;40472;53.486;14.542;2022-08-19T05:34:12;19.80;99.90
54576;DHT22;40472;53.486;14.542;2022-08-19T05:36:40;19.70;99.90
54576;DHT22;40472;53.486;14.542;2022-08-19T05:39:13;19.70;99.90
54576;DHT22;40472;53.486;14.542;2022-08-19T05:41:47;19.70;99.90
54576;DHT22;40472;53.486;14.542;2022-08-19T05:44:14;19.80;99.90
54576;DHT22;40472;53.486;14.542;2022-08-19T05:46:43;19.90;99.90
54576;DHT22;40472;53.486;14.542;2022-08-19T05:49:13;19.90;99.90
54576;DHT22;40472;53.486;14.542;2022-08-19T05:51:39;19.90;99.90
54576;DHT22;40472;53.486;14.542;2022-08-19T05:54:06;19.90;99.90
54576;DHT22;40472;53.486;14.542;2022-08-19T05:56:32;20.00;99.90
54576;DHT22;40472;53.486;14.542;2022-08-19T05:59:02;20.00;99.90
54576;DHT22;40472;53.486;14.542;2022-08-19T06:01:28;20.10;99.90
54576;DHT22;40472;53.486;14.542;2022-08-19T06:03:54;20.00;99.90
54576;DHT22;40472;53.486;14.542;2022-08-19T06:06:20;19.90;99.90
54576;DHT22;40472;53.486;14.542;2022-08-19T06:08:46;20.00;99.90
54576;DHT22;40472;53.486;14.542;2022-08-19T06:11:25;20.00;99.90
54576;DHT22;40472;53.486;14.542;2022-08-19T06:14:01;20.00;99.90
54576;DHT22;40472;53.486;14.542;2022-08-19T06:16:28;20.00;99.90
54576;DHT22;40472;53.486;14.542;2022-08-19T06:18:55;20.00;99.90
54576;DHT22;40472;53.486;14.542;2022-08-19T06:21:25;20.00;99.90
54576;DHT22;40472;53.486;14.542;2022-08-19T06:23:53;20.10;99.90
54576;DHT22;40472;53.486;14.542;2022-08-19T06:26:19;20.20;99.90
54576;DHT22;40472;53.486;14.542;2022-08-19T06:28:46;20.30;99.90
54576;DHT22;40472;53.486;14.542;2022-08-19T06:31:26;20.30;99.90
54576;DHT22;40472;53.486;14.542;2022-08-19T06:33:52;20.40;99.90
54576;DHT22;40472;53.486;14.542;2022-08-19T06:36:23;20.30;99.90
54576;DHT22;40472;53.486;14.542;2022-08-19T06:38:57;20.30;99.90
54576;DHT22;40472;53.486;14.542;2022-08-19T06:41:24;20.30;99.90
54576;DHT22;40472;53.486;14.542;2022-08-19T06:43:51;20.30;99.90
54576;DHT22;40472;53.486;14.542;2022-08-19T06:46:17;20.30;99.90
54576;DHT22;40472;53.486;14.542;2022-08-19T06:48:44;20.40;99.90
54576;DHT22;40472;53.486;14.542;2022-08-19T06:51:10;20.40;99.90
54576;DHT22;40472;53.486;14.542;2022-08-19T06:53:36;20.40;99.90
54576;DHT22;40472;53.486;14.542;2022-08-19T06:56:02;20.40;99.90
54576;DHT22;40472;53.486;14.542;2022-08-19T06:58:31;20.50;99.90
54576;DHT22;40472;53.486;14.542;2022-08-19T07:01:03;20.40;99.90
54576;DHT22;40472;53.486;14.542;2022-08-19T07:03:30;20.40;99.90
54576;DHT22;40472;53.486;14.542;2022-08-19T07:05:57;20.50;99.90
54576;DHT22;40472;53.486;14.542;2022-08-19T07:08:24;20.50;99.90
54576;DHT22;40472;53.486;14.542;2022-08-19T07:10:52;20.50;99.90
54576;DHT22;40472;53.486;14.542;2022-08-19T07:13:18;20.40;99.90
54576;DHT22;40472;53.486;14.542;2022-08-19T07:15:44;20.50;99.90
54576;DHT22;40472;53.486;14.542;2022-08-19T07:18:12;20.60;99.90
54576;DHT22;40472;53.486;14.542;2022-08-19T07:20:39;20.80;99.90
54576;DHT22;40472;53.486;14.542;2022-08-19T07:23:05;20.80;99.90
54576;DHT22;40472;53.486;14.542;2022-08-19T07:25:31;20.80;99.90
54576;DHT22;40472;53.486;14.542;2022-08-19T07:27:56;20.80;99.90
54576;DHT22;40472;53.486;14.542;2022-08-19T07:30:22;20.70;99.90
54576;DHT22;40472;53.486;14.542;2022-08-19T07:32:49;20.70;99.90
54576;DHT22;40472;53.486;14.542;2022-08-19T07:35:17;20.60;99.90
54576;DHT22;40472;53.486;14.542;2022-08-19T07:37:45;20.60;99.90
54576;DHT22;40472;53.486;14.542;2022-08-19T07:40:11;20.60;99.90
54576;DHT22;40472;53.486;14.542;2022-08-19T07:42:38;20.50;99.90
54576;DHT22;40472;53.486;14.542;2022-08-19T07:45:05;20.50;99.90
54576;DHT22;40472;53.486;14.542;2022-08-19T07:47:31;20.50;99.90
54576;DHT22;40472;53.486;14.542;2022-08-19T07:49:57;20.50;99.90
54576;DHT22;40472;53.486;14.542;2022-08-19T07:52:22;20.50;99.90
54576;DHT22;40472;53.486;14.542;2022-08-19T07:54:48;20.50;99.90
54576;DHT22;40472;53.486;14.542;2022-08-19T07:57:15;20.50;99.90
54576;DHT22;40472;53.486;14.542;2022-08-19T07:59:42;20.60;99.90
54576;DHT22;40472;53.486;14.542;2022-08-19T08:02:08;20.60;99.90
54576;DHT22;40472;53.486;14.542;2022-08-19T08:04:34;20.60;99.90
54576;DHT22;40472;53.486;14.542;2022-08-19T08:07:18;20.60;99.90
54576;DHT22;40472;53.486;14.542;2022-08-19T08:10:05;20.60;99.90
54576;DHT22;40472;53.486;14.542;2022-08-19T08:12:37;20.60;99.90
54576;DHT22;40472;53.486;14.542;2022-08-19T08:15:10;20.60;99.90
54576;DHT22;40472;53.486;14.542;2022-08-19T08:17:36;20.50;99.90
54576;DHT22;40472;53.486;14.542;2022-08-19T08:20:05;20.40;99.90
54576;DHT22;40472;53.486;14.542;2022-08-19T08:22:35;20.30;99.90
54576;DHT22;40472;53.486;14.542;2022-08-19T08:25:22;20.40;99.90
54576;DHT22;40472;53.486;14.542;2022-08-19T08:27:48;20.30;99.90
54576;DHT22;40472;53.486;14.542;2022-08-19T08:30:23;20.30;99.90
54576;DHT22;40472;53.486;14.542;2022-08-19T08:32:51;20.30;99.90
54576;DHT22;40472;53.486;14.542;2022-08-19T08:35:20;20.30;99.90
54576;DHT22;40472;53.486;14.542;2022-08-19T08:37:48;20.20;99.90
54576;DHT22;40472;53.486;14.542;2022-08-19T08:46:09;20.30;99.90
54576;DHT22;40472;53.486;14.542;2022-08-19T08:51:12;20.40;99.90
54576;DHT22;40472;53.486;14.542;2022-08-19T08:53:40;20.50;99.90
54576;DHT22;40472;53.486;14.542;2022-08-19T08:56:08;20.50;99.90
54576;DHT22;40472;53.486;14.542;2022-08-19T08:59:10;20.40;99.90
54576;DHT22;40472;53.486;14.542;2022-08-19T09:01:34;20.40;99.90
54576;DHT22;40472;53.486;14.542;2022-08-19T09:03:59;20.40;99.90
54576;DHT22;40472;53.486;14.542;2022-08-19T09:09:26;20.30;99.90
54576;DHT22;40472;53.486;14.542;2022-08-19T09:17:23;20.30;99.90
54576;DHT22;40472;53.486;14.542;2022-08-19T09:22:43;20.30;99.90
54576;DHT22;40472;53.486;14.542;2022-08-19T09:25:12;20.30;99.90
54576;DHT22;40472;53.486;14.542;2022-08-19T09:27:40;20.30;99.90
54576;DHT22;40472;53.486;14.542;2022-08-19T09:30:07;20.30;99.90
54576;DHT22;40472;53.486;14.542;2022-08-19T09:32:34;20.40;99.90
54576;DHT22;40472;53.486;14.542;2022-08-19T09:34:59;20.40;99.90
54576;DHT22;40472;53.486;14.542;2022-08-19T09:37:26;20.50;99.90
54576;DHT22;40472;53.486;14.542;2022-08-19T09:39:52;20.60;99.90
54576;DHT22;40472;53.486;14.542;2022-08-19T09:42:19;20.60;99.90
54576;DHT22;40472;53.486;14.542;2022-08-19T09:44:46;20.60;99.90
54576;DHT22;40472;53.486;14.542;2022-08-19T09:47:13;20.80;99.90
54576;DHT22;40472;53.486;14.542;2022-08-19T09:49:40;20.80;99.90
54576;DHT22;40472;53.486;14.542;2022-08-19T09:52:08;20.90;99.90
54576;DHT22;40472;53.486;14.542;2022-08-19T09:54:34;21.00;99.90
54576;DHT22;40472;53.486;14.542;2022-08-19T09:57:01;21.00;99.90
54576;DHT22;40472;53.486;14.542;2022-08-19T09:59:27;21.10;99.90
54576;DHT22;40472;53.486;14.542;2022-08-19T10:01:53;21.20;99.90
54576;DHT22;40472;53.486;14.542;2022-08-19T10:04:19;21.20;99.90
54576;DHT22;40472;53.486;14.542;2022-08-19T10:06:47;21.40;99.90
54576;DHT22;40472;53.486;14.542;2022-08-19T10:09:15;21.50;99.90
54576;DHT22;40472;53.486;14.542;2022-08-19T10:11:43;21.70;99.90
54576;DHT22;40472;53.486;14.542;2022-08-19T10:14:14;21.70;99.90
54576;DHT22;40472;53.486;14.542;2022-08-19T10:16:40;21.70;99.90
54576;DHT22;40472;53.486;14.542;2022-08-19T10:19:07;21.80;99.90
54576;DHT22;40472;53.486;14.542;2022-08-19T10:21:35;21.80;99.90
54576;DHT22;40472;53.486;14.542;2022-08-19T10:24:03;21.80;99.90
54576;DHT22;40472;53.486;14.542;2022-08-19T10:26:33;21.80;99.90
54576;DHT22;40472;53.486;14.542;2022-08-19T10:29:01;21.80;99.90
54576;DHT22;40472;53.486;14.542;2022-08-19T10:31:30;21.80;99.90
54576;DHT22;40472;53.486;14.542;2022-08-19T10:33:57;21.70;99.90
54576;DHT22;40472;53.486;14.542;2022-08-19T10:36:32;21.70;99.90
54576;DHT22;40472;53.486;14.542;2022-08-19T10:39:03;21.60;99.90
54576;DHT22;40472;53.486;14.542;2022-08-19T10:41:32;21.50;99.90
54576;DHT22;40472;53.486;14.542;2022-08-19T10:44:03;21.40;99.90
54576;DHT22;40472;53.486;14.542;2022-08-19T10:46:30;21.30;99.90
54576;DHT22;40472;53.486;14.542;2022-08-19T10:49:02;21.30;99.90
54576;DHT22;40472;53.486;14.542;2022-08-19T10:51:28;21.30;99.90
54576;DHT22;40472;53.486;14.542;2022-08-19T10:54:12;21.30;99.90
54576;DHT22;40472;53.486;14.542;2022-08-19T10:56:39;21.30;99.90
54576;DHT22;40472;53.486;14.542;2022-08-19T10:59:22;21.30;99.90
54576;DHT22;40472;53.486;14.542;2022-08-19T11:01:50;21.30;99.90
54576;DHT22;40472;53.486;14.542;2022-08-19T11:04:16;21.40;99.90
54576;DHT22;40472;53.486;14.542;2022-08-19T11:06:44;21.30;99.90
54576;DHT22;40472;53.486;14.542;2022-08-19T11:09:11;21.40;99.90
54576;DHT22;40472;53.486;14.542;2022-08-19T11:11:38;21.40;99.90
54576;DHT22;40472;53.486;14.542;2022-08-19T11:14:11;21.50;99.90
54576;DHT22;40472;53.486;14.542;2022-08-19T11:16:38;21.50;99.90
54576;DHT22;40472;53.486;14.542;2022-08-19T11:19:06;21.60;99.90
54576;DHT22;40472;53.486;14.542;2022-08-19T11:21:36;21.60;99.90
54576;DHT22;40472;53.486;14.542;2022-08-19T11:24:05;21.70;99.90
54576;DHT22;40472;53.486;14.542;2022-08-19T11:26:33;21.60;99.90
54576;DHT22;40472;53.486;14.542;2022-08-19T11:29:00;21.70;99.90
54576;DHT22;40472;53.486;14.542;2022-08-19T11:31:29;21.70;99.90
54576;DHT22;40472;53.486;14.542;2022-08-19T11:33:57;21.80;99.90
54576;DHT22;40472;53.486;14.542;2022-08-19T11:36:25;21.90;99.90
54576;DHT22;40472;53.486;14.542;2022-08-19T11:38:51;22.00;99.90
54576;DHT22;40472;53.486;14.542;2022-08-19T11:41:19;22.10;99.90
54576;DHT22;40472;53.486;14.542;2022-08-19T11:43:45;22.20;99.90
54576;DHT22;40472;53.486;14.542;2022-08-19T11:46:13;22.20;99.90
54576;DHT22;40472;53.486;14.542;2022-08-19T11:48:40;22.40;99.90
54576;DHT22;40472;53.486;14.542;2022-08-19T11:51:12;22.70;99.90
54576;DHT22;40472;53.486;14.542;2022-08-19T11:53:38;22.90;99.90
54576;DHT22;40472;53.486;14.542;2022-08-19T11:56:05;23.10;99.90
54576;DHT22;40472;53.486;14.542;2022-08-19T11:58:31;23.40;99.90
54576;DHT22;40472;53.486;14.542;2022-08-19T12:00:57;23.50;99.90
54576;DHT22;40472;53.486;14.542;2022-08-19T12:03:24;23.60;99.90
54576;DHT22;40472;53.486;14.542;2022-08-19T12:05:50;23.70;99.90
54576;DHT22;40472;53.486;14.542;2022-08-19T12:08:16;23.90;99.90
54576;DHT22;40472;53.486;14.542;2022-08-19T12:10:43;24.10;99.90
54576;DHT22;40472;53.486;14.542;2022-08-19T12:13:11;24.30;99.90
54576;DHT22;40472;53.486;14.542;2022-08-19T12:15:40;24.50;99.90
54576;DHT22;40472;53.486;14.542;2022-08-19T12:18:07;24.60;99.90
54576;DHT22;40472;53.486;14.542;2022-08-19T12:20:38;24.80;99.90
54576;DHT22;40472;53.486;14.542;2022-08-19T12:23:06;24.80;99.90
54576;DHT22;40472;53.486;14.542;2022-08-19T12:25:32;24.80;99.90
54576;DHT22;40472;53.486;14.542;2022-08-19T12:27:58;25.00;99.90
54576;DHT22;40472;53.486;14.542;2022-08-19T12:30:24;25.10;99.90
54576;DHT22;40472;53.486;14.542;2022-08-19T12:32:50;25.20;99.90
54576;DHT22;40472;53.486;14.542;2022-08-19T12:35:17;25.20;99.90
54576;DHT22;40472;53.486;14.542;2022-08-19T12:37:46;25.00;99.90
54576;DHT22;40472;53.486;14.542;2022-08-19T12:40:12;24.60;99.90
54576;DHT22;40472;53.486;14.542;2022-08-19T12:42:39;24.80;99.90
54576;DHT22;40472;53.486;14.542;2022-08-19T12:45:13;24.90;99.90
54576;DHT22;40472;53.486;14.542;2022-08-19T12:47:39;24.80;99.90
54576;DHT22;40472;53.486;14.542;2022-08-19T12:50:06;24.70;99.90
54576;DHT22;40472;53.486;14.542;2022-08-19T12:52:35;24.60;99.90
54576;DHT22;40472;53.486;14.542;2022-08-19T12:55:08;24.70;99.90
54576;DHT22;40472;53.486;14.542;2022-08-19T12:57:34;24.80;99.90
54576;DHT22;40472;53.486;14.542;2022-08-19T13:00:13;24.60;99.90
54576;DHT22;40472;53.486;14.542;2022-08-19T13:02:41;24.80;99.90
54576;DHT22;40472;53.486;14.542;2022-08-19T13:05:08;24.80;99.90
54576;DHT22;40472;53.486;14.542;2022-08-19T13:07:38;25.10;99.90
54576;DHT22;40472;53.486;14.542;2022-08-19T13:10:06;25.10;99.90
54576;DHT22;40472;53.486;14.542;2022-08-19T13:12:34;25.00;99.90
54576;DHT22;40472;53.486;14.542;2022-08-19T13:14:59;25.10;99.90
54576;DHT22;40472;53.486;14.542;2022-08-19T13:17:25;25.20;99.90
54576;DHT22;40472;53.486;14.542;2022-08-19T13:19:51;25.30;99.90
54576;DHT22;40472;53.486;14.542;2022-08-19T13:22:17;25.50;99.90
54576;DHT22;40472;53.486;14.542;2022-08-19T13:24:43;25.50;99.90
54576;DHT22;40472;53.486;14.542;2022-08-19T13:27:09;25.40;99.90
54576;DHT22;40472;53.486;14.542;2022-08-19T13:29:35;25.30;99.90
54576;DHT22;40472;53.486;14.542;2022-08-19T13:32:19;25.10;99.90
54576;DHT22;40472;53.486;14.542;2022-08-19T13:35:05;25.20;99.90
54576;DHT22;40472;53.486;14.542;2022-08-19T13:37:30;25.30;99.90
54576;DHT22;40472;53.486;14.542;2022-08-19T13:40:14;25.30;99.90
54576;DHT22;40472;53.486;14.542;2022-08-19T13:42:44;25.40;99.90
54576;DHT22;40472;53.486;14.542;2022-08-19T13:45:11;25.40;99.90
54576;DHT22;40472;53.486;14.542;2022-08-19T13:47:38;25.30;99.90
54576;DHT22;40472;53.486;14.542;2022-08-19T13:50:19;25.30;99.90
54576;DHT22;40472;53.486;14.542;2022-08-19T13:52:46;25.40;99.90
54576;DHT22;40472;53.486;14.542;2022-08-19T13:55:14;25.50;99.90
54576;DHT22;40472;53.486;14.542;2022-08-19T13:57:41;25.50;99.90
54576;DHT22;40472;53.486;14.542;2022-08-19T14:00:26;25.60;99.90
54576;DHT22;40472;53.486;14.542;2022-08-19T14:02:55;25.40;99.90
54576;DHT22;40472;53.486;14.542;2022-08-19T14:05:22;25.30;99.90
54576;DHT22;40472;53.486;14.542;2022-08-19T14:07:49;25.40;99.90
54576;DHT22;40472;53.486;14.542;2022-08-19T14:10:15;25.30;99.90
54576;DHT22;40472;53.486;14.542;2022-08-19T14:12:42;25.20;99.90
54576;DHT22;40472;53.486;14.542;2022-08-19T14:15:09;24.90;99.90
54576;DHT22;40472;53.486;14.542;2022-08-19T14:17:38;24.90;99.90
54576;DHT22;40472;53.486;14.542;2022-08-19T14:20:06;24.80;99.90
54576;DHT22;40472;53.486;14.542;2022-08-19T14:22:35;25.00;99.90
54576;DHT22;40472;53.486;14.542;2022-08-19T14:25:03;25.10;99.90
54576;DHT22;40472;53.486;14.542;2022-08-19T14:27:32;25.30;99.90
54576;DHT22;40472;53.486;14.542;2022-08-19T14:29:58;25.50;99.90
54576;DHT22;40472;53.486;14.542;2022-08-19T14:32:24;25.60;99.90
54576;DHT22;40472;53.486;14.542;2022-08-19T14:34:53;25.80;99.90
54576;DHT22;40472;53.486;14.542;2022-08-19T14:37:20;25.70;99.90
54576;DHT22;40472;53.486;14.542;2022-08-19T14:39:47;25.80;99.90
54576;DHT22;40472;53.486;14.542;2022-08-19T14:42:14;25.90;99.90
54576;DHT22;40472;53.486;14.542;2022-08-19T14:44:41;25.80;99.90
54576;DHT22;40472;53.486;14.542;2022-08-19T14:47:09;25.60;99.90
54576;DHT22;40472;53.486;14.542;2022-08-19T14:49:35;25.40;99.90
54576;DHT22;40472;53.486;14.542;2022-08-19T14:52:02;25.50;99.90
54576;DHT22;40472;53.486;14.542;2022-08-19T14:54:29;25.50;99.90
54576;DHT22;40472;53.486;14.542;2022-08-19T14:56:55;25.40;99.90
54576;DHT22;40472;53.486;14.542;2022-08-19T14:59:20;25.40;99.90
54576;DHT22;40472;53.486;14.542;2022-08-19T15:01:46;25.30;99.90
54576;DHT22;40472;53.486;14.542;2022-08-19T15:04:12;25.20;99.90
54576;DHT22;40472;53.486;14.542;2022-08-19T15:06:39;25.10;99.90
54576;DHT22;40472;53.486;14.542;2022-08-19T15:09:05;25.10;99.90
54576;DHT22;40472;53.486;14.542;2022-08-19T15:11:31;25.20;99.90
54576;DHT22;40472;53.486;14.542;2022-08-19T15:13:58;25.20;99.90
54576;DHT22;40472;53.486;14.542;2022-08-19T15:16:26;25.00;99.90
54576;DHT22;40472;53.486;14.542;2022-08-19T15:18:54;24.90;99.90
54576;DHT22;40472;53.486;14.542;2022-08-19T15:21:21;24.80;99.90
54576;DHT22;40472;53.486;14.542;2022-08-19T15:23:49;24.70;99.90
54576;DHT22;40472;53.486;14.542;2022-08-19T15:26:16;24.60;99.90
54576;DHT22;40472;53.486;14.542;2022-08-19T15:28:43;24.60;99.90
54576;DHT22;40472;53.486;14.542;2022-08-19T15:31:10;24.70;99.90
54576;DHT22;40472;53.486;14.542;2022-08-19T15:33:38;24.70;99.90
54576;DHT22;40472;53.486;14.542;2022-08-19T15:36:08;24.70;99.90
54576;DHT22;40472;53.486;14.542;2022-08-19T15:38:35;24.60;99.90
54576;DHT22;40472;53.486;14.542;2022-08-19T15:41:02;24.60;99.90
54576;DHT22;40472;53.486;14.542;2022-08-19T15:43:47;24.50;99.90